Marietta, North Carolina
Current Conditions -  °F | °C
As of 4:54 PM on Monday 20 Oct 2014 (Local Time) from KLBT Reporting Station
Few Clouds Few Clouds  
Wind Chill: 74°   Ceiling: Unl
Heat Index: 74°   Visibility: 10mi
Dew Point: 52°   Wind: 10mph
Humidity: 46%   Direction: 220°SW
Pressure: 29.99"   Gusts: NA
Location:  34.37°N, 79.12°W
Report Text: KLBT 202054Z AUTO 22009KT 10SM FEW050 23/11 A2999 RMK AO2 SLP153 T02330111 56023
Loading
Personal Weather Stations






























Interactive Weather Map
Tropical Storm Tracking
New forecast layout! Learn more

10-Day Weather Forecast

Advertisements
Track Severe Weather on mobile